sensor_id;sensor_type;location;lat;lon;timestamp;pressure;altitude;pressure_sealevel;temperature;humidity
44734;BME280;30462;52.446;-1.930;2024-01-16T00:00:14;99861.16406;;;;
44734;BME280;30462;52.446;-1.930;2024-01-16T00:01:14;99854.24609;;;;
44734;BME280;30462;52.446;-1.930;2024-01-16T00:02:14;99849.29688;;;;
44734;BME280;30462;52.446;-1.930;2024-01-16T00:03:14;99848.44922;;;;
44734;BME280;30462;52.446;-1.930;2024-01-16T00:04:14;99852.78516;;;;
44734;BME280;30462;52.446;-1.930;2024-01-16T00:05:14;99846.94922;;;;
44734;BME280;30462;52.446;-1.930;2024-01-16T00:06:14;99844.06641;;;;
44734;BME280;30462;52.446;-1.930;2024-01-16T00:07:13;99844.75391;;;;
44734;BME280;30462;52.446;-1.930;2024-01-16T00:08:14;99843.34375;;;;
44734;BME280;30462;52.446;-1.930;2024-01-16T00:09:15;99836.89844;;;;
44734;BME280;30462;52.446;-1.930;2024-01-16T00:10:14;99836.19141;;;;
44734;BME280;30462;52.446;-1.930;2024-01-16T00:11:14;99832.64844;;;;
44734;BME280;30462;52.446;-1.930;2024-01-16T00:12:14;99834.11719;;;;
44734;BME280;30462;52.446;-1.930;2024-01-16T00:13:14;99832.22266;;;;
44734;BME280;30462;52.446;-1.930;2024-01-16T00:14:14;99826.05469;;;;
44734;BME280;30462;52.446;-1.930;2024-01-16T00:15:14;99826.01172;;;;
44734;BME280;30462;52.446;-1.930;2024-01-16T00:16:13;99824.91797;;;;
44734;BME280;30462;52.446;-1.930;2024-01-16T00:17:14;99821.79688;;;;
44734;BME280;30462;52.446;-1.930;2024-01-16T00:18:14;99825.99609;;;;
44734;BME280;30462;52.446;-1.930;2024-01-16T00:19:14;99824.80078;;;;
44734;BME280;30462;52.446;-1.930;2024-01-16T00:20:14;99824.07813;;;;
44734;BME280;30462;52.446;-1.930;2024-01-16T00:21:14;99826.45313;;;;
44734;BME280;30462;52.446;-1.930;2024-01-16T00:22:14;99820.61719;;;;
44734;BME280;30462;52.446;-1.930;2024-01-16T00:23:14;99821.80469;;;;
44734;BME280;30462;52.446;-1.930;2024-01-16T00:24:14;99821.12891;;;;
44734;BME280;30462;52.446;-1.930;2024-01-16T00:25:14;99818.57031;;;;
44734;BME280;30462;52.446;-1.930;2024-01-16T00:27:14;99819.625;;;;
44734;BME280;30462;52.446;-1.930;2024-01-16T00:28:14;99817.96875;;;;
44734;BME280;30462;52.446;-1.930;2024-01-16T00:29:13;99820.50781;;;;
44734;BME280;30462;52.446;-1.930;2024-01-16T00:30:14;99815.64453;;;;
44734;BME280;30462;52.446;-1.930;2024-01-16T00:31:15;99814.85938;;;;
44734;BME280;30462;52.446;-1.930;2024-01-16T00:32:14;99817.61328;;;;
44734;BME280;30462;52.446;-1.930;2024-01-16T00:33:13;99812.28516;;;;
44734;BME280;30462;52.446;-1.930;2024-01-16T00:34:14;99811.77734;;;;
44734;BME280;30462;52.446;-1.930;2024-01-16T00:35:14;99811.61719;;;;
44734;BME280;30462;52.446;-1.930;2024-01-16T00:36:14;99806.17188;;;;
44734;BME280;30462;52.446;-1.930;2024-01-16T00:37:14;99808.01953;;;;
44734;BME280;30462;52.446;-1.930;2024-01-16T00:38:14;99806.34766;;;;
44734;BME280;30462;52.446;-1.930;2024-01-16T00:39:14;99805.82422;;;;
44734;BME280;30462;52.446;-1.930;2024-01-16T00:40:14;99800.60156;;;;
44734;BME280;30462;52.446;-1.930;2024-01-16T00:41:14;99798.34766;;;;
44734;BME280;30462;52.446;-1.930;2024-01-16T00:42:14;99796.51563;;;;
44734;BME280;30462;52.446;-1.930;2024-01-16T00:43:14;99796.72266;;;;
44734;BME280;30462;52.446;-1.930;2024-01-16T00:44:14;99798.19141;;;;
44734;BME280;30462;52.446;-1.930;2024-01-16T00:45:14;99797.79688;;;;
44734;BME280;30462;52.446;-1.930;2024-01-16T00:46:14;99796.53906;;;;
44734;BME280;30462;52.446;-1.930;2024-01-16T00:47:14;99798.25391;;;;
44734;BME280;30462;52.446;-1.930;2024-01-16T00:48:14;99795.65625;;;;
44734;BME280;30462;52.446;-1.930;2024-01-16T00:49:13;99793.05859;;;;
44734;BME280;30462;52.446;-1.930;2024-01-16T00:50:14;99790.87891;;;;
44734;BME280;30462;52.446;-1.930;2024-01-16T00:51:14;99779.85156;;;;
44734;BME280;30462;52.446;-1.930;2024-01-16T00:52:14;99789.85156;;;;
44734;BME280;30462;52.446;-1.930;2024-01-16T00:53:14;99787.3125;;;;
44734;BME280;30462;52.446;-1.930;2024-01-16T00:54:14;99786.12109;;;;
44734;BME280;30462;52.446;-1.930;2024-01-16T00:55:14;99785.15234;;;;
44734;BME280;30462;52.446;-1.930;2024-01-16T00:56:13;99788.48047;;;;
44734;BME280;30462;52.446;-1.930;2024-01-16T00:57:15;99783.25781;;;;
44734;BME280;30462;52.446;-1.930;2024-01-16T00:58:14;99781.31641;;;;
44734;BME280;30462;52.446;-1.930;2024-01-16T00:59:14;99783.07422;;;;
44734;BME280;30462;52.446;-1.930;2024-01-16T01:00:14;99784.19531;;;;
44734;BME280;30462;52.446;-1.930;2024-01-16T01:01:14;99787.36719;;;;
44734;BME280;30462;52.446;-1.930;2024-01-16T01:02:13;99783.70703;;;;
44734;BME280;30462;52.446;-1.930;2024-01-16T01:03:14;99782.89063;;;;
44734;BME280;30462;52.446;-1.930;2024-01-16T01:04:14;99781.32813;;;;
44734;BME280;30462;52.446;-1.930;2024-01-16T01:05:14;99781.60547;;;;
44734;BME280;30462;52.446;-1.930;2024-01-16T01:06:14;99780.28906;;;;
44734;BME280;30462;52.446;-1.930;2024-01-16T01:07:14;99781.10938;;;;
44734;BME280;30462;52.446;-1.930;2024-01-16T01:08:13;99782.29688;;;;
44734;BME280;30462;52.446;-1.930;2024-01-16T01:09:14;99786.27344;;;;
44734;BME280;30462;52.446;-1.930;2024-01-16T01:10:14;99783.73438;;;;
44734;BME280;30462;52.446;-1.930;2024-01-16T01:11:14;99782.69531;;;;
44734;BME280;30462;52.446;-1.930;2024-01-16T01:12:14;99781.95313;;;;
44734;BME280;30462;52.446;-1.930;2024-01-16T01:13:14;99781.48828;;;;
44734;BME280;30462;52.446;-1.930;2024-01-16T01:14:14;99780.88672;;;;
44734;BME280;30462;52.446;-1.930;2024-01-16T01:15:14;99780.14844;;;;
44734;BME280;30462;52.446;-1.930;2024-01-16T01:16:14;99777.18359;;;;
44734;BME280;30462;52.446;-1.930;2024-01-16T01:17:14;99777.02344;;;;
44734;BME280;30462;52.446;-1.930;2024-01-16T01:18:14;99778.85938;;;;
44734;BME280;30462;52.446;-1.930;2024-01-16T01:19:14;99777;;;;
44734;BME280;30462;52.446;-1.930;2024-01-16T01:20:13;99778.45313;;;;
44734;BME280;30462;52.446;-1.930;2024-01-16T01:21:14;99778.03125;;;;
44734;BME280;30462;52.446;-1.930;2024-01-16T01:22:14;99779.17578;;;;
44734;BME280;30462;52.446;-1.930;2024-01-16T01:23:14;99781.45313;;;;
44734;BME280;30462;52.446;-1.930;2024-01-16T01:24:14;99780.86719;;;;
44734;BME280;30462;52.446;-1.930;2024-01-16T01:25:14;99780.63281;;;;
44734;BME280;30462;52.446;-1.930;2024-01-16T01:26:14;99783.34375;;;;
44734;BME280;30462;52.446;-1.930;2024-01-16T01:27:14;99784.375;;;;
44734;BME280;30462;52.446;-1.930;2024-01-16T01:28:14;99786.27344;;;;
44734;BME280;30462;52.446;-1.930;2024-01-16T01:29:14;99786.19922;;;;
44734;BME280;30462;52.446;-1.930;2024-01-16T01:30:14;99779.65234;;;;
44734;BME280;30462;52.446;-1.930;2024-01-16T01:31:14;99783.05859;;;;
44734;BME280;30462;52.446;-1.930;2024-01-16T01:32:14;99784.70313;;;;
44734;BME280;30462;52.446;-1.930;2024-01-16T01:33:13;99779.60156;;;;
44734;BME280;30462;52.446;-1.930;2024-01-16T01:34:14;99779.66797;;;;
44734;BME280;30462;52.446;-1.930;2024-01-16T01:35:14;99778.61719;;;;
44734;BME280;30462;52.446;-1.930;2024-01-16T01:36:13;99779.05078;;;;
44734;BME280;30462;52.446;-1.930;2024-01-16T01:37:14;99776.60156;;;;
44734;BME280;30462;52.446;-1.930;2024-01-16T01:38:14;99777.23438;;;;
44734;BME280;30462;52.446;-1.930;2024-01-16T01:39:14;99771.76953;;;;
44734;BME280;30462;52.446;-1.930;2024-01-16T01:40:13;99770.72656;;;;
44734;BME280;30462;52.446;-1.930;2024-01-16T01:41:13;99769.15625;;;;
44734;BME280;30462;52.446;-1.930;2024-01-16T01:42:15;99768.64063;;;;
44734;BME280;30462;52.446;-1.930;2024-01-16T01:43:19;99769.19922;;;;
44734;BME280;30462;52.446;-1.930;2024-01-16T01:44:13;99768.82422;;;;
44734;BME280;30462;52.446;-1.930;2024-01-16T01:45:14;99766.44922;;;;
44734;BME280;30462;52.446;-1.930;2024-01-16T01:46:16;99764.94531;;;;
44734;BME280;30462;52.446;-1.930;2024-01-16T01:47:14;99764.65234;;;;
44734;BME280;30462;52.446;-1.930;2024-01-16T01:48:14;99763.05078;;;;
44734;BME280;30462;52.446;-1.930;2024-01-16T01:49:14;99767.09766;;;;
44734;BME280;30462;52.446;-1.930;2024-01-16T01:50:13;99765.26953;;;;
44734;BME280;30462;52.446;-1.930;2024-01-16T01:51:14;99765.34375;;;;
44734;BME280;30462;52.446;-1.930;2024-01-16T01:52:14;99766.83984;;;;
44734;BME280;30462;52.446;-1.930;2024-01-16T01:53:13;99762.33594;;;;
44734;BME280;30462;52.446;-1.930;2024-01-16T01:54:14;99760.06641;;;;
44734;BME280;30462;52.446;-1.930;2024-01-16T01:55:14;99760.46484;;;;
44734;BME280;30462;52.446;-1.930;2024-01-16T01:56:14;99754.66797;;;;
44734;BME280;30462;52.446;-1.930;2024-01-16T01:57:14;99755.15234;;;;
44734;BME280;30462;52.446;-1.930;2024-01-16T01:58:14;99751.9375;;;;
44734;BME280;30462;52.446;-1.930;2024-01-16T01:59:14;99749.05078;;;;
44734;BME280;30462;52.446;-1.930;2024-01-16T02:00:14;99749.83594;;;;
44734;BME280;30462;52.446;-1.930;2024-01-16T02:01:15;99751.60156;;;;
44734;BME280;30462;52.446;-1.930;2024-01-16T02:02:14;99755.09375;;;;
44734;BME280;30462;52.446;-1.930;2024-01-16T02:03:14;99753.77344;;;;
44734;BME280;30462;52.446;-1.930;2024-01-16T02:04:14;99751.41016;;;;
44734;BME280;30462;52.446;-1.930;2024-01-16T02:05:14;99752.35547;;;;
44734;BME280;30462;52.446;-1.930;2024-01-16T02:06:13;99752.87891;;;;
44734;BME280;30462;52.446;-1.930;2024-01-16T02:07:13;99751.08594;;;;
44734;BME280;30462;52.446;-1.930;2024-01-16T02:08:14;99754.44141;;;;
44734;BME280;30462;52.446;-1.930;2024-01-16T02:09:13;99754.62109;;;;
44734;BME280;30462;52.446;-1.930;2024-01-16T02:10:14;99748.58984;;;;
44734;BME280;30462;52.446;-1.930;2024-01-16T02:11:14;99748.17188;;;;
44734;BME280;30462;52.446;-1.930;2024-01-16T02:12:14;99746.32031;;;;
44734;BME280;30462;52.446;-1.930;2024-01-16T02:13:14;99746.35547;;;;
44734;BME280;30462;52.446;-1.930;2024-01-16T02:14:13;99739.51563;;;;
44734;BME280;30462;52.446;-1.930;2024-01-16T02:15:14;99738.5625;;;;
44734;BME280;30462;52.446;-1.930;2024-01-16T02:16:18;99735.72266;;;;
44734;BME280;30462;52.446;-1.930;2024-01-16T02:17:14;99730.53906;;;;
44734;BME280;30462;52.446;-1.930;2024-01-16T02:18:13;99729.66797;;;;
44734;BME280;30462;52.446;-1.930;2024-01-16T02:19:14;99731.76172;;;;
44734;BME280;30462;52.446;-1.930;2024-01-16T02:20:14;99737.58984;;;;
44734;BME280;30462;52.446;-1.930;2024-01-16T02:21:15;99734.58203;;;;
44734;BME280;30462;52.446;-1.930;2024-01-16T02:22:15;99730.80469;;;;
44734;BME280;30462;52.446;-1.930;2024-01-16T02:23:14;99732.95313;;;;
44734;BME280;30462;52.446;-1.930;2024-01-16T02:24:14;99731.56641;;;;
44734;BME280;30462;52.446;-1.930;2024-01-16T02:25:14;99729.07031;;;;
44734;BME280;30462;52.446;-1.930;2024-01-16T02:26:14;99726.73828;;;;
44734;BME280;30462;52.446;-1.930;2024-01-16T02:27:14;99726.00781;;;;
44734;BME280;30462;52.446;-1.930;2024-01-16T02:28:13;99723.80078;;;;
44734;BME280;30462;52.446;-1.930;2024-01-16T02:29:14;99724.36328;;;;
44734;BME280;30462;52.446;-1.930;2024-01-16T02:30:14;99727.45703;;;;
44734;BME280;30462;52.446;-1.930;2024-01-16T02:31:14;99721.96094;;;;
44734;BME280;30462;52.446;-1.930;2024-01-16T02:32:16;99722.98438;;;;
44734;BME280;30462;52.446;-1.930;2024-01-16T02:33:14;99721.20703;;;;
44734;BME280;30462;52.446;-1.930;2024-01-16T02:34:13;99721.86719;;;;
44734;BME280;30462;52.446;-1.930;2024-01-16T02:35:14;99722.71484;;;;
44734;BME280;30462;52.446;-1.930;2024-01-16T02:36:14;99722.07031;;;;
44734;BME280;30462;52.446;-1.930;2024-01-16T02:37:14;99718.70703;;;;
44734;BME280;30462;52.446;-1.930;2024-01-16T02:38:14;99718.5;;;;
44734;BME280;30462;52.446;-1.930;2024-01-16T02:39:14;99717.22266;;;;
44734;BME280;30462;52.446;-1.930;2024-01-16T02:40:14;99716.90234;;;;
44734;BME280;30462;52.446;-1.930;2024-01-16T02:41:14;99716.01953;;;;
44734;BME280;30462;52.446;-1.930;2024-01-16T02:42:14;99714.36328;;;;
44734;BME280;30462;52.446;-1.930;2024-01-16T02:43:14;99716.98828;;;;
44734;BME280;30462;52.446;-1.930;2024-01-16T02:44:14;99716.51563;;;;
44734;BME280;30462;52.446;-1.930;2024-01-16T02:45:14;99715.71094;;;;
44734;BME280;30462;52.446;-1.930;2024-01-16T02:46:14;99714.9375;;;;
44734;BME280;30462;52.446;-1.930;2024-01-16T02:47:14;99712.08594;;;;
44734;BME280;30462;52.446;-1.930;2024-01-16T02:48:14;99716.69922;;;;
44734;BME280;30462;52.446;-1.930;2024-01-16T02:49:13;99718.45313;;;;
44734;BME280;30462;52.446;-1.930;2024-01-16T02:50:14;99719.46484;;;;
44734;BME280;30462;52.446;-1.930;2024-01-16T02:51:14;99719.71875;;;;
44734;BME280;30462;52.446;-1.930;2024-01-16T02:52:14;99714.97656;;;;
44734;BME280;30462;52.446;-1.930;2024-01-16T02:53:14;99717.38281;;;;
44734;BME280;30462;52.446;-1.930;2024-01-16T02:54:14;99711.23438;;;;
44734;BME280;30462;52.446;-1.930;2024-01-16T02:55:14;99713.82422;;;;
44734;BME280;30462;52.446;-1.930;2024-01-16T02:56:14;99712.48047;;;;
44734;BME280;30462;52.446;-1.930;2024-01-16T02:57:13;99712.52344;;;;
44734;BME280;30462;52.446;-1.930;2024-01-16T02:58:14;99712.24609;;;;
44734;BME280;30462;52.446;-1.930;2024-01-16T02:59:14;99710.58203;;;;
44734;BME280;30462;52.446;-1.930;2024-01-16T03:00:14;99710.57031;;;;
44734;BME280;30462;52.446;-1.930;2024-01-16T03:01:13;99707.48438;;;;
44734;BME280;30462;52.446;-1.930;2024-01-16T03:02:13;99707.32422;;;;
44734;BME280;30462;52.446;-1.930;2024-01-16T03:03:14;99705.33203;;;;
44734;BME280;30462;52.446;-1.930;2024-01-16T03:04:14;99704.28906;;;;
44734;BME280;30462;52.446;-1.930;2024-01-16T03:05:14;99705.57813;;;;
44734;BME280;30462;52.446;-1.930;2024-01-16T03:07:13;99703.83594;;;;
44734;BME280;30462;52.446;-1.930;2024-01-16T03:08:14;99704.60938;;;;
44734;BME280;30462;52.446;-1.930;2024-01-16T03:09:14;99705.67578;;;;
44734;BME280;30462;52.446;-1.930;2024-01-16T03:10:14;99705.125;;;;
44734;BME280;30462;52.446;-1.930;2024-01-16T03:11:14;99707.42578;;;;
44734;BME280;30462;52.446;-1.930;2024-01-16T03:12:13;99709.48047;;;;
44734;BME280;30462;52.446;-1.930;2024-01-16T03:13:14;99709.45703;;;;
44734;BME280;30462;52.446;-1.930;2024-01-16T03:14:13;99710.64063;;;;
44734;BME280;30462;52.446;-1.930;2024-01-16T03:15:14;99709.97266;;;;
44734;BME280;30462;52.446;-1.930;2024-01-16T03:16:14;99708.31641;;;;
44734;BME280;30462;52.446;-1.930;2024-01-16T03:17:14;99704.64063;;;;
44734;BME280;30462;52.446;-1.930;2024-01-16T03:18:14;99704.66797;;;;
44734;BME280;30462;52.446;-1.930;2024-01-16T03:19:13;99703.07813;;;;
44734;BME280;30462;52.446;-1.930;2024-01-16T03:20:14;99701.74609;;;;
44734;BME280;30462;52.446;-1.930;2024-01-16T03:21:14;99696.49609;;;;
44734;BME280;30462;52.446;-1.930;2024-01-16T03:22:14;99692.54688;;;;
44734;BME280;30462;52.446;-1.930;2024-01-16T03:23:14;99695.26953;;;;
44734;BME280;30462;52.446;-1.930;2024-01-16T03:24:13;99690.83984;;;;
44734;BME280;30462;52.446;-1.930;2024-01-16T03:25:15;99688.25781;;;;
44734;BME280;30462;52.446;-1.930;2024-01-16T03:26:14;99681.34766;;;;
44734;BME280;30462;52.446;-1.930;2024-01-16T03:27:14;99678.83203;;;;
44734;BME280;30462;52.446;-1.930;2024-01-16T03:28:14;99678.98047;;;;
44734;BME280;30462;52.446;-1.930;2024-01-16T03:29:14;99676.10156;;;;
44734;BME280;30462;52.446;-1.930;2024-01-16T03:30:14;99681.06641;;;;
44734;BME280;30462;52.446;-1.930;2024-01-16T03:31:14;99678.58203;;;;
44734;BME280;30462;52.446;-1.930;2024-01-16T03:32:14;99676.625;;;;
44734;BME280;30462;52.446;-1.930;2024-01-16T03:33:13;99680.53125;;;;
44734;BME280;30462;52.446;-1.930;2024-01-16T03:34:13;99680.01953;;;;
44734;BME280;30462;52.446;-1.930;2024-01-16T03:35:14;99680.80859;;;;
44734;BME280;30462;52.446;-1.930;2024-01-16T03:36:14;99678.43359;;;;
44734;BME280;30462;52.446;-1.930;2024-01-16T03:37:14;99676.65234;;;;
44734;BME280;30462;52.446;-1.930;2024-01-16T03:38:14;99673.79688;;;;
44734;BME280;30462;52.446;-1.930;2024-01-16T03:39:14;99677.09375;;;;
44734;BME280;30462;52.446;-1.930;2024-01-16T03:40:14;99676.70703;;;;
44734;BME280;30462;52.446;-1.930;2024-01-16T03:41:13;99676.10547;;;;
44734;BME280;30462;52.446;-1.930;2024-01-16T03:42:14;99676.95703;;;;
44734;BME280;30462;52.446;-1.930;2024-01-16T03:43:14;99677.77734;;;;
44734;BME280;30462;52.446;-1.930;2024-01-16T03:44:14;99678.94922;;;;
44734;BME280;30462;52.446;-1.930;2024-01-16T03:45:14;99672.77344;;;;
44734;BME280;30462;52.446;-1.930;2024-01-16T03:46:14;99672.09375;;;;
44734;BME280;30462;52.446;-1.930;2024-01-16T03:47:13;99670.58594;;;;
44734;BME280;30462;52.446;-1.930;2024-01-16T03:48:14;99668.75391;;;;
44734;BME280;30462;52.446;-1.930;2024-01-16T03:49:14;99666.38281;;;;
44734;BME280;30462;52.446;-1.930;2024-01-16T03:50:14;99668.38672;;;;
44734;BME280;30462;52.446;-1.930;2024-01-16T03:51:14;99666.94141;;;;
44734;BME280;30462;52.446;-1.930;2024-01-16T03:52:14;99670.8125;;;;
44734;BME280;30462;52.446;-1.930;2024-01-16T03:53:14;99667.27734;;;;
44734;BME280;30462;52.446;-1.930;2024-01-16T03:54:14;99669.33594;;;;
44734;BME280;30462;52.446;-1.930;2024-01-16T03:55:14;99665.23828;;;;
44734;BME280;30462;52.446;-1.930;2024-01-16T03:56:14;99665.98438;;;;
44734;BME280;30462;52.446;-1.930;2024-01-16T03:57:14;99665.24219;;;;
44734;BME280;30462;52.446;-1.930;2024-01-16T03:58:14;99667.89453;;;;
44734;BME280;30462;52.446;-1.930;2024-01-16T03:59:13;99667.20703;;;;
44734;BME280;30462;52.446;-1.930;2024-01-16T04:00:14;99667.22656;;;;
44734;BME280;30462;52.446;-1.930;2024-01-16T04:01:14;99664.39453;;;;
44734;BME280;30462;52.446;-1.930;2024-01-16T04:02:13;99665.76953;;;;
44734;BME280;30462;52.446;-1.930;2024-01-16T04:03:14;99666.72266;;;;
44734;BME280;30462;52.446;-1.930;2024-01-16T04:04:14;99656.67188;;;;
44734;BME280;30462;52.446;-1.930;2024-01-16T04:05:14;99658.875;;;;
44734;BME280;30462;52.446;-1.930;2024-01-16T04:06:18;99659.27344;;;;
44734;BME280;30462;52.446;-1.930;2024-01-16T04:07:14;99657.52734;;;;
44734;BME280;30462;52.446;-1.930;2024-01-16T04:08:14;99657.84375;;;;
44734;BME280;30462;52.446;-1.930;2024-01-16T04:09:13;99657.35938;;;;
44734;BME280;30462;52.446;-1.930;2024-01-16T04:10:14;99656.91406;;;;
44734;BME280;30462;52.446;-1.930;2024-01-16T04:11:14;99655.14844;;;;
44734;BME280;30462;52.446;-1.930;2024-01-16T04:12:13;99656.51172;;;;
44734;BME280;30462;52.446;-1.930;2024-01-16T04:13:13;99655.01563;;;;
44734;BME280;30462;52.446;-1.930;2024-01-16T04:14:14;99655.88672;;;;
44734;BME280;30462;52.446;-1.930;2024-01-16T04:15:14;99654.12891;;;;
44734;BME280;30462;52.446;-1.930;2024-01-16T04:16:14;99653.72266;;;;
44734;BME280;30462;52.446;-1.930;2024-01-16T04:17:13;99651.78906;;;;
44734;BME280;30462;52.446;-1.930;2024-01-16T04:18:14;99653.14063;;;;
44734;BME280;30462;52.446;-1.930;2024-01-16T04:19:14;99649.83594;;;;
44734;BME280;30462;52.446;-1.930;2024-01-16T04:20:14;99651.07031;;;;
44734;BME280;30462;52.446;-1.930;2024-01-16T04:21:14;99655.53125;;;;
44734;BME280;30462;52.446;-1.930;2024-01-16T04:22:13;99653.07813;;;;
44734;BME280;30462;52.446;-1.930;2024-01-16T04:23:14;99651.15625;;;;
44734;BME280;30462;52.446;-1.930;2024-01-16T04:24:14;99644.03125;;;;
44734;BME280;30462;52.446;-1.930;2024-01-16T04:25:13;99644.51563;;;;
44734;BME280;30462;52.446;-1.930;2024-01-16T04:26:13;99638.25391;;;;
44734;BME280;30462;52.446;-1.930;2024-01-16T04:27:14;99637.69141;;;;
44734;BME280;30462;52.446;-1.930;2024-01-16T04:28:14;99636.44141;;;;
44734;BME280;30462;52.446;-1.930;2024-01-16T04:29:14;99634.49219;;;;
44734;BME280;30462;52.446;-1.930;2024-01-16T04:30:14;99634.45313;;;;
44734;BME280;30462;52.446;-1.930;2024-01-16T04:31:14;99631.93359;;;;
44734;BME280;30462;52.446;-1.930;2024-01-16T04:32:14;99630.73828;;;;
44734;BME280;30462;52.446;-1.930;2024-01-16T04:33:13;99627.23047;;;;
44734;BME280;30462;52.446;-1.930;2024-01-16T04:34:14;99620.91016;;;;
44734;BME280;30462;52.446;-1.930;2024-01-16T04:35:14;99619.66406;;;;
44734;BME280;30462;52.446;-1.930;2024-01-16T04:36:14;99619.98438;;;;
44734;BME280;30462;52.446;-1.930;2024-01-16T04:37:14;99617.09766;;;;
44734;BME280;30462;52.446;-1.930;2024-01-16T04:38:14;99617.55469;;;;
44734;BME280;30462;52.446;-1.930;2024-01-16T04:39:13;99616.47266;;;;
44734;BME280;30462;52.446;-1.930;2024-01-16T04:40:14;99615.41016;;;;
44734;BME280;30462;52.446;-1.930;2024-01-16T04:42:14;99616.73047;;;;
44734;BME280;30462;52.446;-1.930;2024-01-16T04:43:14;99616.09766;;;;
44734;BME280;30462;52.446;-1.930;2024-01-16T04:44:14;99617.58203;;;;
44734;BME280;30462;52.446;-1.930;2024-01-16T04:45:13;99617.98047;;;;
44734;BME280;30462;52.446;-1.930;2024-01-16T04:46:14;99620.53906;;;;
44734;BME280;30462;52.446;-1.930;2024-01-16T04:47:14;99619.1875;;;;
44734;BME280;30462;52.446;-1.930;2024-01-16T04:48:13;99619.07422;;;;
44734;BME280;30462;52.446;-1.930;2024-01-16T04:49:14;99616.54297;;;;
44734;BME280;30462;52.446;-1.930;2024-01-16T04:50:14;99613.00391;;;;
44734;BME280;30462;52.446;-1.930;2024-01-16T04:51:14;99611.12109;;;;
44734;BME280;30462;52.446;-1.930;2024-01-16T04:52:14;99612.03906;;;;
44734;BME280;30462;52.446;-1.930;2024-01-16T04:53:13;99611.60938;;;;
44734;BME280;30462;52.446;-1.930;2024-01-16T04:54:14;99609.35547;;;;
44734;BME280;30462;52.446;-1.930;2024-01-16T04:55:14;99611.29688;;;;
44734;BME280;30462;52.446;-1.930;2024-01-16T04:56:14;99608.23047;;;;
44734;BME280;30462;52.446;-1.930;2024-01-16T04:57:14;99610.60547;;;;
44734;BME280;30462;52.446;-1.930;2024-01-16T04:58:14;99614.52734;;;;
44734;BME280;30462;52.446;-1.930;2024-01-16T04:59:13;99613.48047;;;;
44734;BME280;30462;52.446;-1.930;2024-01-16T05:00:14;99612.62891;;;;
44734;BME280;30462;52.446;-1.930;2024-01-16T05:01:14;99607.72656;;;;
44734;BME280;30462;52.446;-1.930;2024-01-16T05:02:14;99604.14844;;;;
44734;BME280;30462;52.446;-1.930;2024-01-16T05:03:14;99601.4375;;;;
44734;BME280;30462;52.446;-1.930;2024-01-16T05:04:14;99599.02734;;;;
44734;BME280;30462;52.446;-1.930;2024-01-16T05:05:14;99597.00781;;;;
44734;BME280;30462;52.446;-1.930;2024-01-16T05:06:14;99596.80469;;;;
44734;BME280;30462;52.446;-1.930;2024-01-16T05:07:14;99595.64453;;;;
44734;BME280;30462;52.446;-1.930;2024-01-16T05:08:13;99595.85938;;;;
44734;BME280;30462;52.446;-1.930;2024-01-16T05:09:14;99593.03125;;;;
44734;BME280;30462;52.446;-1.930;2024-01-16T05:10:14;99590.20313;;;;
44734;BME280;30462;52.446;-1.930;2024-01-16T05:11:14;99589.24219;;;;
44734;BME280;30462;52.446;-1.930;2024-01-16T05:12:14;99585.82422;;;;
44734;BME280;30462;52.446;-1.930;2024-01-16T05:13:14;99587.79297;;;;
44734;BME280;30462;52.446;-1.930;2024-01-16T05:14:13;99579.91406;;;;
44734;BME280;30462;52.446;-1.930;2024-01-16T05:15:14;99580.59375;;;;
44734;BME280;30462;52.446;-1.930;2024-01-16T05:16:14;99584.83594;;;;
44734;BME280;30462;52.446;-1.930;2024-01-16T05:17:14;99581.60547;;;;
44734;BME280;30462;52.446;-1.930;2024-01-16T05:18:14;99580.10938;;;;
44734;BME280;30462;52.446;-1.930;2024-01-16T05:19:14;99581.42578;;;;
44734;BME280;30462;52.446;-1.930;2024-01-16T05:20:13;99578.65625;;;;
44734;BME280;30462;52.446;-1.930;2024-01-16T05:21:14;99579.15625;;;;
44734;BME280;30462;52.446;-1.930;2024-01-16T05:22:14;99579.03906;;;;
44734;BME280;30462;52.446;-1.930;2024-01-16T05:23:14;99579.19922;;;;
44734;BME280;30462;52.446;-1.930;2024-01-16T05:24:13;99577.36328;;;;
44734;BME280;30462;52.446;-1.930;2024-01-16T05:25:14;99580.04688;;;;
44734;BME280;30462;52.446;-1.930;2024-01-16T05:26:13;99576.77734;;;;
44734;BME280;30462;52.446;-1.930;2024-01-16T05:27:13;99580.13672;;;;
44734;BME280;30462;52.446;-1.930;2024-01-16T05:28:14;99578.11328;;;;
44734;BME280;30462;52.446;-1.930;2024-01-16T05:29:14;99579.23828;;;;
44734;BME280;30462;52.446;-1.930;2024-01-16T05:30:14;99575.83984;;;;
44734;BME280;30462;52.446;-1.930;2024-01-16T05:31:14;99576.49609;;;;
44734;BME280;30462;52.446;-1.930;2024-01-16T05:32:14;99577.48047;;;;
44734;BME280;30462;52.446;-1.930;2024-01-16T05:33:14;99572.74219;;;;
44734;BME280;30462;52.446;-1.930;2024-01-16T05:34:14;99574.01953;;;;
44734;BME280;30462;52.446;-1.930;2024-01-16T05:35:13;99569.77734;;;;
44734;BME280;30462;52.446;-1.930;2024-01-16T05:36:14;99574.5;;;;
44734;BME280;30462;52.446;-1.930;2024-01-16T05:37:14;99574.95703;;;;
44734;BME280;30462;52.446;-1.930;2024-01-16T05:38:14;99573.72266;;;;
44734;BME280;30462;52.446;-1.930;2024-01-16T05:39:14;99573.01953;;;;
44734;BME280;30462;52.446;-1.930;2024-01-16T05:40:14;99570.04297;;;;
44734;BME280;30462;52.446;-1.930;2024-01-16T05:41:14;99572.80078;;;;
44734;BME280;30462;52.446;-1.930;2024-01-16T05:42:14;99569.71875;;;;
44734;BME280;30462;52.446;-1.930;2024-01-16T05:43:14;99570.74219;;;;
44734;BME280;30462;52.446;-1.930;2024-01-16T05:44:14;99569.68359;;;;
44734;BME280;30462;52.446;-1.930;2024-01-16T05:45:14;99570.34766;;;;
44734;BME280;30462;52.446;-1.930;2024-01-16T05:46:14;99565.44922;;;;
44734;BME280;30462;52.446;-1.930;2024-01-16T05:47:14;99562.64453;;;;
44734;BME280;30462;52.446;-1.930;2024-01-16T05:48:14;99564.64453;;;;